New Tazewell, Tennessee
Current Conditions -  °F | °C
As of 8:55 AM on Wednesday 28 Jan 2015 (Local Time) from K1A6 Reporting Station
Clear Clear  
Wind Chill: 20°   Ceiling: Unl
Heat Index: 20°   Visibility: 10mi
Dew Point: 18°   Wind: 0mph
Humidity: 91%   Direction: NA
Pressure: 30.36"   Gusts: NA
Location:  36.44°N, 83.61°W
Report Text: K1A6 281355Z AUTO 00000KT 10SM CLR M07/M08 A3036 RMK AO2 T10681080
Loading
Personal Weather Stations






























Interactive Weather Map New forecast layout! Learn more

10-Day Weather Forecast

Advertisements
Track Severe Weather on mobile